createdAt,value
2022-11-15T00:04:36.068Z,60
2022-11-15T00:10:16.334Z,60
2022-11-15T00:15:56.651Z,70
2022-11-15T00:21:36.828Z,64
2022-11-15T00:27:17.181Z,76
2022-11-15T00:32:57.306Z,64
2022-11-15T00:38:37.583Z,66
2022-11-15T00:44:18.334Z,66
2022-11-15T00:49:58.938Z,62
2022-11-15T00:55:39.576Z,60
2022-11-15T01:01:20.392Z,66
2022-11-15T01:07:02.081Z,66
2022-11-15T01:12:42.511Z,60
2022-11-15T01:18:22.652Z,54
2022-11-15T01:24:03.062Z,72
2022-11-15T01:29:43.239Z,76
2022-11-15T01:35:23.604Z,76
2022-11-15T01:41:04.137Z,68
2022-11-15T01:46:44.006Z,58
2022-11-15T01:52:24.056Z,56
2022-11-15T01:58:04.248Z,70
2022-11-15T02:03:44.793Z,70
2022-11-15T02:09:25.009Z,62
2022-11-15T02:15:05.296Z,62
2022-11-15T02:20:45.367Z,62
2022-11-15T02:26:25.628Z,64
2022-11-15T02:32:06.247Z,70
2022-11-15T02:37:46.855Z,60
2022-11-15T02:43:27.264Z,70
2022-11-15T02:49:08.230Z,56
2022-11-15T02:54:48.481Z,60
2022-11-15T03:00:29.471Z,66
2022-11-15T03:06:09.764Z,54
2022-11-15T03:11:49.917Z,66
2022-11-15T03:17:30.373Z,58
2022-11-15T03:23:10.845Z,78
2022-11-15T03:28:51.548Z,70
2022-11-15T03:34:34.354Z,56
2022-11-15T03:40:14.579Z,56
2022-11-15T03:45:57.450Z,74
2022-11-15T03:51:37.865Z,76
2022-11-15T03:57:18.079Z,68
2022-11-15T04:10:28.517Z,70
2022-11-15T04:16:08.897Z,72
2022-11-15T04:21:49.758Z,70
2022-11-15T04:27:30.066Z,64
2022-11-15T04:33:10.585Z,66
2022-11-15T04:38:50.852Z,64
2022-11-15T04:44:31.183Z,60
2022-11-15T04:50:14.109Z,60
2022-11-15T04:55:54.598Z,62
2022-11-15T05:01:36.781Z,66
2022-11-15T05:07:26.221Z,70
2022-11-15T05:13:06.650Z,60
2022-11-15T05:18:47.509Z,72
2022-11-15T05:24:27.796Z,54
2022-11-15T05:30:08.050Z,58
2022-11-15T05:35:50.203Z,62
2022-11-15T05:41:30.757Z,70
2022-11-15T05:47:11.464Z,66
2022-11-15T05:52:51.890Z,70
2022-11-15T05:58:32.743Z,60
2022-11-15T06:04:13.295Z,52
2022-11-15T06:09:53.207Z,58
2022-11-15T06:15:39.299Z,60
2022-11-15T06:21:22.210Z,72
2022-11-15T06:27:02.428Z,66
2022-11-15T06:32:42.731Z,62
2022-11-15T06:38:22.538Z,70
2022-11-15T06:44:02.705Z,66
2022-11-15T06:49:43.126Z,58
2022-11-15T06:55:23.062Z,62
2022-11-15T07:01:04.253Z,66
2022-11-15T07:06:45.334Z,66
2022-11-15T07:12:25.664Z,60
2022-11-15T07:18:05.844Z,60
2022-11-15T07:23:46.687Z,66
2022-11-15T07:29:27.026Z,72
2022-11-15T07:35:07.687Z,72
2022-11-15T07:40:48.418Z,62
2022-11-15T07:46:28.769Z,64
2022-11-15T07:52:09.175Z,68
2022-11-15T07:57:49.679Z,58
2022-11-15T08:03:32.403Z,66
2022-11-15T08:09:13.588Z,62
2022-11-15T08:14:53.931Z,72
2022-11-15T08:20:33.996Z,66
2022-11-15T08:26:14.519Z,74
2022-11-15T08:31:54.949Z,72
2022-11-15T08:37:35.326Z,72
2022-11-15T08:43:15.347Z,72
2022-11-15T08:48:55.504Z,62
2022-11-15T08:54:35.470Z,58
2022-11-15T09:00:15.940Z,76
2022-11-15T09:05:56.137Z,66
2022-11-15T09:11:36.058Z,76
2022-11-15T09:17:25.660Z,78
2022-11-15T09:23:06.104Z,64
2022-11-15T09:28:47.014Z,82
2022-11-15T09:34:27.165Z,64
2022-11-15T09:40:07.449Z,58
2022-11-15T09:45:47.107Z,28
2022-11-15T09:51:27.100Z,22
2022-11-15T09:57:16.934Z,38
2022-11-15T10:02:57.039Z,26
2022-11-15T10:08:37.285Z,30
2022-11-15T10:14:17.891Z,20
2022-11-15T10:20:06.854Z,20
2022-11-15T10:25:47.063Z,14
2022-11-15T10:31:27.662Z,10
2022-11-15T10:37:08.033Z,2
2022-11-15T10:42:48.767Z,2
2022-11-15T10:48:30.667Z,2
2022-11-15T10:54:21.538Z,0
2022-11-15T11:00:10.245Z,6
2022-11-15T11:06:16.748Z,0
2022-11-15T11:11:57.374Z,0
2022-11-15T11:17:40.266Z,10
2022-11-15T11:23:21.146Z,58
2022-11-15T11:29:01.175Z,76
2022-11-15T11:34:41.467Z,54
2022-11-15T11:40:21.473Z,82
2022-11-15T11:46:01.902Z,32
2022-11-15T11:51:42.192Z,76
2022-11-15T11:57:21.998Z,70
2022-11-15T12:03:03.501Z,74
2022-11-15T12:08:44.184Z,64
2022-11-15T12:14:25.314Z,10
2022-11-15T12:20:05.840Z,76
2022-11-15T12:25:45.550Z,74
2022-11-15T12:31:27.689Z,78
2022-11-15T12:37:09.971Z,64
2022-11-15T12:42:50.031Z,82
2022-11-15T12:48:32.449Z,84
2022-11-15T12:54:13.920Z,70
2022-11-15T12:59:54.510Z,70
2022-11-15T13:05:35.104Z,82
2022-11-15T13:11:18.205Z,82
2022-11-15T13:17:01.027Z,64
2022-11-15T13:22:41.580Z,70
2022-11-15T13:28:22.310Z,82
2022-11-15T13:34:02.716Z,64
2022-11-15T13:39:42.860Z,72
2022-11-15T13:45:22.775Z,68
2022-11-15T13:51:03.429Z,60
2022-11-15T14:01:46.495Z,115
2022-11-15T14:07:27.597Z,80
2022-11-15T14:13:08.205Z,64
2022-11-15T14:18:48.581Z,78
2022-11-15T14:24:29.550Z,76
2022-11-15T14:30:12.497Z,66
2022-11-15T14:35:53.545Z,66
2022-11-15T14:41:34.055Z,78
2022-11-15T14:47:14.399Z,66
2022-11-15T14:52:54.946Z,70
2022-11-15T14:58:36.036Z,76
2022-11-15T15:04:16.446Z,68
2022-11-15T15:10:42.840Z,72
2022-11-15T15:16:24.081Z,70
2022-11-15T15:22:04.421Z,72
2022-11-15T15:27:47.787Z,72
2022-11-15T15:33:29.128Z,76
2022-11-15T15:39:23.388Z,72
2022-11-15T15:45:03.778Z,58
2022-11-15T15:50:44.354Z,60
2022-11-15T15:56:24.661Z,66
2022-11-15T16:02:05.145Z,80
2022-11-15T16:07:45.681Z,64
2022-11-15T16:13:25.883Z,90
2022-11-15T16:19:06.346Z,72
2022-11-15T16:24:49.952Z,68
2022-11-15T16:30:30.619Z,66
2022-11-15T16:36:11.276Z,80
2022-11-15T16:41:51.842Z,64
2022-11-15T16:47:37.467Z,70
2022-11-15T16:53:19.194Z,68
2022-11-15T16:59:00.011Z,76
2022-11-15T17:04:40.258Z,62
2022-11-15T17:10:20.540Z,76
2022-11-15T17:16:01.096Z,72
2022-11-15T17:21:41.063Z,64
2022-11-15T17:27:21.285Z,76
2022-11-15T17:33:01.750Z,70
2022-11-15T17:38:41.744Z,72
2022-11-15T17:44:22.318Z,64
2022-11-15T17:50:02.524Z,70
2022-11-15T17:55:43.270Z,60
2022-11-15T18:01:24.254Z,66
2022-11-15T18:07:14.644Z,66
2022-11-15T18:12:58.027Z,80
2022-11-15T18:18:44.168Z,72
2022-11-15T18:24:30.553Z,76
2022-11-15T18:30:11.442Z,70
2022-11-15T18:35:54.608Z,70
2022-11-15T18:41:49.295Z,74
2022-11-15T18:47:39.010Z,72
2022-11-15T18:53:25.623Z,64
2022-11-15T18:59:11.467Z,72
2022-11-15T19:04:52.359Z,66
2022-11-15T19:10:37.834Z,68
2022-11-15T19:16:17.894Z,72
2022-11-15T19:21:58.810Z,62
2022-11-15T19:27:39.315Z,72
2022-11-15T19:33:28.332Z,76
2022-11-15T19:39:11.270Z,76
2022-11-15T19:44:51.914Z,60
2022-11-15T19:50:35.925Z,72
2022-11-15T19:56:24.124Z,76
2022-11-15T20:02:09.017Z,80
2022-11-15T20:07:53.565Z,70
2022-11-15T20:13:36.476Z,62
2022-11-15T20:19:16.997Z,72
2022-11-15T20:24:57.292Z,68
2022-11-15T20:30:37.926Z,62
2022-11-15T20:36:24.380Z,72
2022-11-15T20:42:13.985Z,60
2022-11-15T20:48:00.720Z,60
2022-11-15T20:53:58.682Z,68
2022-11-15T20:59:45.935Z,68
2022-11-15T21:05:26.178Z,72
2022-11-15T21:11:06.461Z,52
2022-11-15T21:16:48.894Z,78
2022-11-15T21:22:30.366Z,70
2022-11-15T21:28:10.778Z,62
2022-11-15T21:33:51.180Z,72
2022-11-15T21:39:31.545Z,70
2022-11-15T21:45:11.800Z,62
2022-11-15T21:50:52.059Z,60
2022-11-15T21:56:32.223Z,66
2022-11-15T22:02:16.292Z,60
2022-11-15T22:07:56.721Z,60
2022-11-15T22:13:37.110Z,70
2022-11-15T22:19:17.809Z,72
2022-11-15T22:24:57.929Z,76
2022-11-15T22:30:37.980Z,68
2022-11-15T22:36:21.434Z,66
2022-11-15T22:42:01.546Z,70
2022-11-15T22:47:44.375Z,62
2022-11-15T22:53:25.001Z,68
2022-11-15T22:59:05.973Z,76
2022-11-15T23:04:46.132Z,56
2022-11-15T23:10:26.530Z,64
2022-11-15T23:16:06.969Z,66
2022-11-15T23:21:47.211Z,60
2022-11-15T23:27:27.924Z,66
2022-11-15T23:33:08.047Z,74
2022-11-15T23:38:48.320Z,72
2022-11-15T23:44:28.740Z,76
2022-11-15T23:50:08.969Z,56
2022-11-15T23:55:49.283Z,70
